sensor_id;sensor_type;location;lat;lon;timestamp;pressure;altitude;pressure_sealevel;temperature;humidity
67987;BME280;54767;53.800;15.956;2023-07-31T00:01:57;99659.11;;;17.66;74.53
67987;BME280;54767;53.800;15.956;2023-07-31T00:04:23;99657.55;;;17.60;74.52
67987;BME280;54767;53.800;15.956;2023-07-31T00:06:51;99658.13;;;17.54;74.47
67987;BME280;54767;53.800;15.956;2023-07-31T00:09:18;99661.52;;;17.48;74.65
67987;BME280;54767;53.800;15.956;2023-07-31T00:11:45;99664.70;;;17.44;74.62
67987;BME280;54767;53.800;15.956;2023-07-31T00:14:12;99662.69;;;17.40;74.41
67987;BME280;54767;53.800;15.956;2023-07-31T00:16:39;99662.14;;;17.35;74.35
67987;BME280;54767;53.800;15.956;2023-07-31T00:19:07;99652.77;;;17.30;74.15
67987;BME280;54767;53.800;15.956;2023-07-31T00:21:36;99653.08;;;17.27;74.37
67987;BME280;54767;53.800;15.956;2023-07-31T00:24:03;99649.69;;;17.22;74.34
67987;BME280;54767;53.800;15.956;2023-07-31T00:26:30;99647.70;;;17.18;74.66
67987;BME280;54767;53.800;15.956;2023-07-31T00:28:59;99646.75;;;17.15;74.49
67987;BME280;54767;53.800;15.956;2023-07-31T00:31:26;99650.94;;;17.12;74.65
67987;BME280;54767;53.800;15.956;2023-07-31T00:33:53;99654.56;;;17.09;74.75
67987;BME280;54767;53.800;15.956;2023-07-31T00:36:20;99654.14;;;17.06;74.79
67987;BME280;54767;53.800;15.956;2023-07-31T00:38:47;99651.23;;;17.03;74.64
67987;BME280;54767;53.800;15.956;2023-07-31T00:41:14;99645.34;;;17.00;74.57
67987;BME280;54767;53.800;15.956;2023-07-31T00:43:41;99646.84;;;16.98;74.60
67987;BME280;54767;53.800;15.956;2023-07-31T00:46:08;99646.92;;;16.94;74.73
67987;BME280;54767;53.800;15.956;2023-07-31T00:48:35;99649.16;;;16.91;74.80
67987;BME280;54767;53.800;15.956;2023-07-31T00:51:03;99645.38;;;16.88;74.95
67987;BME280;54767;53.800;15.956;2023-07-31T00:53:30;99641.55;;;16.86;74.98
67987;BME280;54767;53.800;15.956;2023-07-31T00:55:57;99633.88;;;16.83;75.16
67987;BME280;54767;53.800;15.956;2023-07-31T00:58:24;99632.20;;;16.80;75.15
67987;BME280;54767;53.800;15.956;2023-07-31T01:00:51;99635.98;;;16.78;75.24
67987;BME280;54767;53.800;15.956;2023-07-31T01:03:18;99637.11;;;16.76;75.38
67987;BME280;54767;53.800;15.956;2023-07-31T01:09:02;99639.86;;;16.71;75.38
67987;BME280;54767;53.800;15.956;2023-07-31T01:11:33;99633.48;;;16.67;75.29
67987;BME280;54767;53.800;15.956;2023-07-31T01:14:01;99628.45;;;16.64;75.39
67987;BME280;54767;53.800;15.956;2023-07-31T01:16:31;99628.72;;;16.62;75.46
67987;BME280;54767;53.800;15.956;2023-07-31T01:18:58;99635.50;;;16.60;75.53
67987;BME280;54767;53.800;15.956;2023-07-31T01:24:20;99625.05;;;16.55;75.73
67987;BME280;54767;53.800;15.956;2023-07-31T01:27:06;99623.21;;;16.52;75.66
67987;BME280;54767;53.800;15.956;2023-07-31T01:29:38;99625.80;;;16.48;75.84
67987;BME280;54767;53.800;15.956;2023-07-31T01:32:08;99630.47;;;16.45;75.92
67987;BME280;54767;53.800;15.956;2023-07-31T01:34:36;99627.74;;;16.42;75.93
67987;BME280;54767;53.800;15.956;2023-07-31T01:37:04;99631.36;;;16.40;75.89
67987;BME280;54767;53.800;15.956;2023-07-31T01:39:31;99633.71;;;16.38;76.01
67987;BME280;54767;53.800;15.956;2023-07-31T01:41:58;99630.08;;;16.35;75.90
67987;BME280;54767;53.800;15.956;2023-07-31T01:44:24;99636.17;;;16.33;76.06
67987;BME280;54767;53.800;15.956;2023-07-31T01:46:51;99631.81;;;16.31;76.16
67987;BME280;54767;53.800;15.956;2023-07-31T01:49:18;99628.52;;;16.29;76.18
67987;BME280;54767;53.800;15.956;2023-07-31T01:51:45;99628.39;;;16.27;76.15
67987;BME280;54767;53.800;15.956;2023-07-31T01:54:13;99627.02;;;16.25;76.09
67987;BME280;54767;53.800;15.956;2023-07-31T01:56:39;99627.27;;;16.23;76.09
67987;BME280;54767;53.800;15.956;2023-07-31T01:59:07;99622.55;;;16.22;76.10
67987;BME280;54767;53.800;15.956;2023-07-31T02:01:34;99631.08;;;16.20;76.14
67987;BME280;54767;53.800;15.956;2023-07-31T02:04:01;99631.80;;;16.19;76.09
67987;BME280;54767;53.800;15.956;2023-07-31T02:06:29;99629.93;;;16.17;76.00
67987;BME280;54767;53.800;15.956;2023-07-31T02:08:56;99628.05;;;16.15;75.99
67987;BME280;54767;53.800;15.956;2023-07-31T02:11:23;99624.59;;;16.13;76.04
67987;BME280;54767;53.800;15.956;2023-07-31T02:13:50;99621.28;;;16.12;76.04
67987;BME280;54767;53.800;15.956;2023-07-31T02:16:17;99616.39;;;16.10;76.16
67987;BME280;54767;53.800;15.956;2023-07-31T02:18:44;99621.75;;;16.08;76.11
67987;BME280;54767;53.800;15.956;2023-07-31T02:21:11;99616.00;;;16.06;76.11
67987;BME280;54767;53.800;15.956;2023-07-31T02:23:38;99613.22;;;16.03;76.04
67987;BME280;54767;53.800;15.956;2023-07-31T02:26:04;99610.81;;;16.01;76.05
67987;BME280;54767;53.800;15.956;2023-07-31T02:28:31;99612.63;;;16.00;76.09
67987;BME280;54767;53.800;15.956;2023-07-31T02:30:58;99611.81;;;15.98;76.02
67987;BME280;54767;53.800;15.956;2023-07-31T02:33:26;99611.16;;;15.96;76.07
67987;BME280;54767;53.800;15.956;2023-07-31T02:35:53;99612.25;;;15.95;76.21
67987;BME280;54767;53.800;15.956;2023-07-31T02:38:20;99613.54;;;15.93;76.15
67987;BME280;54767;53.800;15.956;2023-07-31T02:40:47;99613.23;;;15.92;76.17
67987;BME280;54767;53.800;15.956;2023-07-31T02:43:14;99613.26;;;15.91;76.25
67987;BME280;54767;53.800;15.956;2023-07-31T02:45:41;99616.29;;;15.90;76.17
67987;BME280;54767;53.800;15.956;2023-07-31T02:48:08;99618.80;;;15.89;76.31
67987;BME280;54767;53.800;15.956;2023-07-31T02:50:35;99615.84;;;15.87;76.23
67987;BME280;54767;53.800;15.956;2023-07-31T02:53:02;99613.45;;;15.85;76.16
67987;BME280;54767;53.800;15.956;2023-07-31T02:55:29;99613.67;;;15.83;76.17
67987;BME280;54767;53.800;15.956;2023-07-31T02:57:56;99619.20;;;15.81;76.17
67987;BME280;54767;53.800;15.956;2023-07-31T03:00:25;99620.84;;;15.79;76.17
67987;BME280;54767;53.800;15.956;2023-07-31T03:02:52;99621.41;;;15.77;76.25
67987;BME280;54767;53.800;15.956;2023-07-31T03:05:19;99622.84;;;15.77;76.28
67987;BME280;54767;53.800;15.956;2023-07-31T03:07:46;99625.87;;;15.76;76.44
67987;BME280;54767;53.800;15.956;2023-07-31T03:10:13;99623.41;;;15.75;76.27
67987;BME280;54767;53.800;15.956;2023-07-31T03:12:40;99624.84;;;15.75;76.31
67987;BME280;54767;53.800;15.956;2023-07-31T03:15:08;99620.79;;;15.75;76.32
67987;BME280;54767;53.800;15.956;2023-07-31T03:17:35;99622.20;;;15.75;76.19
67987;BME280;54767;53.800;15.956;2023-07-31T03:20:02;99622.02;;;15.75;76.30
67987;BME280;54767;53.800;15.956;2023-07-31T03:22:30;99617.26;;;15.75;76.14
67987;BME280;54767;53.800;15.956;2023-07-31T03:24:57;99617.08;;;15.75;76.13
67987;BME280;54767;53.800;15.956;2023-07-31T03:27:24;99617.24;;;15.75;76.26
67987;BME280;54767;53.800;15.956;2023-07-31T03:29:51;99616.68;;;15.76;76.25
67987;BME280;54767;53.800;15.956;2023-07-31T03:32:18;99617.92;;;15.76;76.23
67987;BME280;54767;53.800;15.956;2023-07-31T03:34:45;99619.52;;;15.76;76.22
67987;BME280;54767;53.800;15.956;2023-07-31T03:37:12;99616.52;;;15.76;76.05
67987;BME280;54767;53.800;15.956;2023-07-31T03:39:39;99616.88;;;15.76;76.07
67987;BME280;54767;53.800;15.956;2023-07-31T03:42:06;99619.00;;;15.75;76.10
67987;BME280;54767;53.800;15.956;2023-07-31T03:44:33;99623.77;;;15.75;76.17
67987;BME280;54767;53.800;15.956;2023-07-31T03:47:00;99619.75;;;15.74;76.12
67987;BME280;54767;53.800;15.956;2023-07-31T03:49:27;99623.46;;;15.74;76.12
67987;BME280;54767;53.800;15.956;2023-07-31T03:51:54;99619.40;;;15.74;76.28
67987;BME280;54767;53.800;15.956;2023-07-31T03:54:21;99619.91;;;15.75;76.28
67987;BME280;54767;53.800;15.956;2023-07-31T03:56:48;99614.43;;;15.75;76.23
67987;BME280;54767;53.800;15.956;2023-07-31T03:59:15;99618.32;;;15.75;76.26
67987;BME280;54767;53.800;15.956;2023-07-31T04:01:42;99616.50;;;15.77;76.25
67987;BME280;54767;53.800;15.956;2023-07-31T04:04:08;99617.70;;;15.78;76.22
67987;BME280;54767;53.800;15.956;2023-07-31T04:06:35;99615.52;;;15.80;76.38
67987;BME280;54767;53.800;15.956;2023-07-31T04:09:03;99621.27;;;15.82;76.40
67987;BME280;54767;53.800;15.956;2023-07-31T04:11:30;99618.76;;;15.84;76.34
67987;BME280;54767;53.800;15.956;2023-07-31T04:13:57;99620.83;;;15.86;76.35
67987;BME280;54767;53.800;15.956;2023-07-31T04:16:24;99621.66;;;15.88;76.37
67987;BME280;54767;53.800;15.956;2023-07-31T04:18:51;99621.38;;;15.91;76.39
67987;BME280;54767;53.800;15.956;2023-07-31T04:21:18;99619.19;;;15.93;76.26
67987;BME280;54767;53.800;15.956;2023-07-31T04:23:45;99618.93;;;15.96;76.25
67987;BME280;54767;53.800;15.956;2023-07-31T04:26:12;99612.91;;;16.02;76.35
67987;BME280;54767;53.800;15.956;2023-07-31T04:28:39;99608.83;;;16.10;76.27
67987;BME280;54767;53.800;15.956;2023-07-31T04:31:06;99610.75;;;16.15;76.24
67987;BME280;54767;53.800;15.956;2023-07-31T04:33:33;99612.68;;;16.21;76.06
67987;BME280;54767;53.800;15.956;2023-07-31T04:36:00;99618.23;;;16.24;75.87
67987;BME280;54767;53.800;15.956;2023-07-31T04:38:27;99616.13;;;16.30;75.80
67987;BME280;54767;53.800;15.956;2023-07-31T04:40:54;99613.33;;;16.34;75.63
67987;BME280;54767;53.800;15.956;2023-07-31T04:43:21;99609.46;;;16.40;75.53
67987;BME280;54767;53.800;15.956;2023-07-31T04:45:48;99608.52;;;16.47;75.42
67987;BME280;54767;53.800;15.956;2023-07-31T04:48:16;99607.59;;;16.54;75.22
67987;BME280;54767;53.800;15.956;2023-07-31T04:50:43;99607.94;;;16.60;74.84
67987;BME280;54767;53.800;15.956;2023-07-31T04:53:10;99606.56;;;16.63;74.72
67987;BME280;54767;53.800;15.956;2023-07-31T04:55:37;99607.71;;;16.71;74.71
67987;BME280;54767;53.800;15.956;2023-07-31T04:58:04;99609.96;;;16.80;74.61
67987;BME280;54767;53.800;15.956;2023-07-31T05:00:31;99608.61;;;16.88;74.30
67987;BME280;54767;53.800;15.956;2023-07-31T05:02:58;99608.92;;;16.95;74.54
67987;BME280;54767;53.800;15.956;2023-07-31T05:05:25;99605.98;;;17.03;74.10
67987;BME280;54767;53.800;15.956;2023-07-31T05:07:52;99609.90;;;17.07;73.77
67987;BME280;54767;53.800;15.956;2023-07-31T05:10:19;99604.63;;;17.11;73.49
67987;BME280;54767;53.800;15.956;2023-07-31T05:12:46;99601.77;;;17.17;73.39
67987;BME280;54767;53.800;15.956;2023-07-31T05:15:14;99598.00;;;17.29;73.79
67987;BME280;54767;53.800;15.956;2023-07-31T05:17:42;99602.73;;;17.40;73.40
67987;BME280;54767;53.800;15.956;2023-07-31T05:20:10;99601.17;;;17.53;73.17
67987;BME280;54767;53.800;15.956;2023-07-31T05:22:37;99599.41;;;17.63;73.09
67987;BME280;54767;53.800;15.956;2023-07-31T05:25:04;99593.17;;;17.74;72.66
67987;BME280;54767;53.800;15.956;2023-07-31T05:27:32;99595.02;;;17.82;72.64
67987;BME280;54767;53.800;15.956;2023-07-31T05:29:59;99600.92;;;17.94;72.41
67987;BME280;54767;53.800;15.956;2023-07-31T05:32:26;99597.86;;;18.00;72.24
67987;BME280;54767;53.800;15.956;2023-07-31T05:34:53;99592.42;;;18.12;71.98
67987;BME280;54767;53.800;15.956;2023-07-31T05:37:20;99593.81;;;18.17;71.65
67987;BME280;54767;53.800;15.956;2023-07-31T05:39:47;99596.81;;;18.27;71.53
67987;BME280;54767;53.800;15.956;2023-07-31T05:42:14;99598.31;;;18.29;70.93
67987;BME280;54767;53.800;15.956;2023-07-31T05:44:41;99599.95;;;18.32;71.23
67987;BME280;54767;53.800;15.956;2023-07-31T05:47:08;99600.86;;;18.49;71.17
67987;BME280;54767;53.800;15.956;2023-07-31T05:49:35;99597.16;;;18.58;70.70
67987;BME280;54767;53.800;15.956;2023-07-31T05:52:02;99597.48;;;18.59;70.05
67987;BME280;54767;53.800;15.956;2023-07-31T05:54:29;99598.99;;;18.52;69.81
67987;BME280;54767;53.800;15.956;2023-07-31T05:56:57;99600.46;;;18.50;69.71
67987;BME280;54767;53.800;15.956;2023-07-31T05:59:23;99608.42;;;18.47;69.42
67987;BME280;54767;53.800;15.956;2023-07-31T06:01:50;99606.05;;;18.44;69.50
67987;BME280;54767;53.800;15.956;2023-07-31T06:04:17;99602.52;;;18.43;69.37
67987;BME280;54767;53.800;15.956;2023-07-31T06:06:44;99602.05;;;18.42;69.22
67987;BME280;54767;53.800;15.956;2023-07-31T06:09:11;99599.41;;;18.42;69.19
67987;BME280;54767;53.800;15.956;2023-07-31T06:11:38;99590.81;;;18.40;69.15
67987;BME280;54767;53.800;15.956;2023-07-31T06:14:05;99589.64;;;18.38;68.95
67987;BME280;54767;53.800;15.956;2023-07-31T06:16:32;99590.29;;;18.35;68.94
67987;BME280;54767;53.800;15.956;2023-07-31T06:18:59;99587.85;;;18.34;68.96
67987;BME280;54767;53.800;15.956;2023-07-31T06:21:26;99589.67;;;18.33;68.91
67987;BME280;54767;53.800;15.956;2023-07-31T06:23:53;99588.67;;;18.31;69.01
67987;BME280;54767;53.800;15.956;2023-07-31T06:26:21;99586.30;;;18.28;68.91
67987;BME280;54767;53.800;15.956;2023-07-31T06:28:48;99588.56;;;18.25;68.94
67987;BME280;54767;53.800;15.956;2023-07-31T06:31:15;99592.04;;;18.22;68.95
67987;BME280;54767;53.800;15.956;2023-07-31T06:33:42;99592.30;;;18.20;68.91
67987;BME280;54767;53.800;15.956;2023-07-31T06:36:09;99584.38;;;18.19;68.98
67987;BME280;54767;53.800;15.956;2023-07-31T06:38:36;99584.27;;;18.17;68.85
67987;BME280;54767;53.800;15.956;2023-07-31T06:41:04;99583.25;;;18.16;69.20
67987;BME280;54767;53.800;15.956;2023-07-31T06:43:31;99587.47;;;18.12;68.99
67987;BME280;54767;53.800;15.956;2023-07-31T06:46:04;99586.94;;;18.08;69.06
67987;BME280;54767;53.800;15.956;2023-07-31T06:48:31;99582.20;;;18.02;69.01
67987;BME280;54767;53.800;15.956;2023-07-31T06:50:58;99581.17;;;17.97;68.98
67987;BME280;54767;53.800;15.956;2023-07-31T06:53:25;99580.75;;;17.94;69.29
67987;BME280;54767;53.800;15.956;2023-07-31T06:55:52;99582.97;;;17.92;69.22
67987;BME280;54767;53.800;15.956;2023-07-31T06:58:19;99579.39;;;17.92;69.45
67987;BME280;54767;53.800;15.956;2023-07-31T07:00:46;99578.64;;;17.94;69.48
67987;BME280;54767;53.800;15.956;2023-07-31T07:03:13;99578.98;;;17.93;69.42
67987;BME280;54767;53.800;15.956;2023-07-31T07:05:41;99579.98;;;17.91;69.50
67987;BME280;54767;53.800;15.956;2023-07-31T07:08:08;99580.79;;;17.88;69.37
67987;BME280;54767;53.800;15.956;2023-07-31T07:10:36;99584.48;;;17.85;69.41
67987;BME280;54767;53.800;15.956;2023-07-31T07:13:03;99574.16;;;17.81;69.29
67987;BME280;54767;53.800;15.956;2023-07-31T07:15:31;99576.61;;;17.82;69.64
67987;BME280;54767;53.800;15.956;2023-07-31T07:17:58;99574.21;;;17.85;69.50
67987;BME280;54767;53.800;15.956;2023-07-31T07:20:25;99568.33;;;17.86;69.52
67987;BME280;54767;53.800;15.956;2023-07-31T07:22:52;99567.33;;;17.89;69.48
67987;BME280;54767;53.800;15.956;2023-07-31T07:25:19;99572.81;;;17.93;69.59
67987;BME280;54767;53.800;15.956;2023-07-31T07:27:46;99569.05;;;17.94;69.61
67987;BME280;54767;53.800;15.956;2023-07-31T07:30:13;99569.89;;;17.95;69.62
67987;BME280;54767;53.800;15.956;2023-07-31T07:32:41;99570.04;;;17.96;69.59
67987;BME280;54767;53.800;15.956;2023-07-31T07:35:08;99572.61;;;17.98;69.52
67987;BME280;54767;53.800;15.956;2023-07-31T07:37:35;99571.43;;;18.01;69.65
67987;BME280;54767;53.800;15.956;2023-07-31T07:40:02;99573.01;;;18.06;69.66
67987;BME280;54767;53.800;15.956;2023-07-31T07:42:29;99574.27;;;18.10;69.46
67987;BME280;54767;53.800;15.956;2023-07-31T07:44:56;99576.23;;;18.10;69.36
67987;BME280;54767;53.800;15.956;2023-07-31T07:47:23;99577.69;;;18.08;69.03
67987;BME280;54767;53.800;15.956;2023-07-31T07:49:54;99573.95;;;18.04;69.18
67987;BME280;54767;53.800;15.956;2023-07-31T07:52:21;99575.07;;;18.03;69.20
67987;BME280;54767;53.800;15.956;2023-07-31T07:54:48;99576.27;;;18.04;69.12
67987;BME280;54767;53.800;15.956;2023-07-31T07:57:16;99572.76;;;18.09;69.48
67987;BME280;54767;53.800;15.956;2023-07-31T07:59:43;99574.52;;;18.13;69.27
67987;BME280;54767;53.800;15.956;2023-07-31T08:02:15;99572.63;;;18.16;69.11
67987;BME280;54767;53.800;15.956;2023-07-31T10:05:15;99462.38;;;19.51;66.86
67987;BME280;54767;53.800;15.956;2023-07-31T10:13:22;99456.80;;;19.64;66.63
67987;BME280;54767;53.800;15.956;2023-07-31T10:37:18;99418.40;;;19.84;65.60
67987;BME280;54767;53.800;15.956;2023-07-31T10:44:43;99417.29;;;19.96;65.23
67987;BME280;54767;53.800;15.956;2023-07-31T12:54:25;99314.80;;;20.47;63.60
67987;BME280;54767;53.800;15.956;2023-07-31T12:57:11;99306.64;;;20.47;62.97
67987;BME280;54767;53.800;15.956;2023-07-31T13:00:01;99303.80;;;20.47;63.00
67987;BME280;54767;53.800;15.956;2023-07-31T13:03:16;99301.25;;;20.44;63.10
67987;BME280;54767;53.800;15.956;2023-07-31T13:10:12;99296.73;;;20.42;63.08
67987;BME280;54767;53.800;15.956;2023-07-31T13:12:43;99280.11;;;20.34;63.17
67987;BME280;54767;53.800;15.956;2023-07-31T13:15:12;99286.54;;;20.40;62.76
67987;BME280;54767;53.800;15.956;2023-07-31T13:17:41;99270.58;;;20.33;63.02
67987;BME280;54767;53.800;15.956;2023-07-31T13:20:19;99272.02;;;20.39;63.08
67987;BME280;54767;53.800;15.956;2023-07-31T13:22:47;99277.48;;;20.43;62.98
67987;BME280;54767;53.800;15.956;2023-07-31T13:25:18;99286.70;;;20.47;62.70
67987;BME280;54767;53.800;15.956;2023-07-31T13:28:08;99281.42;;;20.46;62.83
67987;BME280;54767;53.800;15.956;2023-07-31T13:30:46;99284.20;;;20.47;62.87
67987;BME280;54767;53.800;15.956;2023-07-31T13:33:40;99283.46;;;20.48;63.19
67987;BME280;54767;53.800;15.956;2023-07-31T13:36:19;99278.83;;;20.42;63.16
67987;BME280;54767;53.800;15.956;2023-07-31T13:38:51;99280.67;;;20.41;63.21
67987;BME280;54767;53.800;15.956;2023-07-31T13:41:31;99277.94;;;20.38;63.31
67987;BME280;54767;53.800;15.956;2023-07-31T13:43:59;99278.92;;;20.40;63.44
67987;BME280;54767;53.800;15.956;2023-07-31T13:46:31;99279.89;;;20.39;63.35
67987;BME280;54767;53.800;15.956;2023-07-31T13:49:00;99278.98;;;20.35;63.41
67987;BME280;54767;53.800;15.956;2023-07-31T13:51:36;99267.40;;;20.26;63.52
67987;BME280;54767;53.800;15.956;2023-07-31T13:54:09;99280.10;;;20.28;63.76
67987;BME280;54767;53.800;15.956;2023-07-31T13:56:40;99271.92;;;20.21;63.80
67987;BME280;54767;53.800;15.956;2023-07-31T13:59:12;99267.42;;;20.16;64.24
67987;BME280;54767;53.800;15.956;2023-07-31T14:02:09;99267.54;;;20.14;64.66
67987;BME280;54767;53.800;15.956;2023-07-31T14:08:20;99267.66;;;20.11;64.88
67987;BME280;54767;53.800;15.956;2023-07-31T14:11:14;99264.91;;;20.09;64.78
67987;BME280;54767;53.800;15.956;2023-07-31T14:13:48;99265.86;;;20.05;64.74
67987;BME280;54767;53.800;15.956;2023-07-31T14:20:02;99302.39;;;19.89;65.55
67987;BME280;54767;53.800;15.956;2023-07-31T14:27:46;99298.66;;;19.63;66.94
67987;BME280;54767;53.800;15.956;2023-07-31T14:59:15;99263.52;;;19.56;69.38
67987;BME280;54767;53.800;15.956;2023-07-31T15:01:44;99265.23;;;19.58;69.49
67987;BME280;54767;53.800;15.956;2023-07-31T15:04:12;99262.23;;;19.57;69.44
67987;BME280;54767;53.800;15.956;2023-07-31T15:06:42;99263.11;;;19.57;69.72
67987;BME280;54767;53.800;15.956;2023-07-31T15:09:13;99268.68;;;19.56;69.72
67987;BME280;54767;53.800;15.956;2023-07-31T15:11:43;99265.70;;;19.52;69.87
67987;BME280;54767;53.800;15.956;2023-07-31T15:14:12;99260.98;;;19.47;70.06
67987;BME280;54767;53.800;15.956;2023-07-31T15:16:44;99256.19;;;19.44;70.18
67987;BME280;54767;53.800;15.956;2023-07-31T15:19:18;99251.86;;;19.41;70.43
67987;BME280;54767;53.800;15.956;2023-07-31T15:21:47;99251.58;;;19.40;70.61
67987;BME280;54767;53.800;15.956;2023-07-31T15:24:17;99245.79;;;19.38;70.79
67987;BME280;54767;53.800;15.956;2023-07-31T15:26:53;99241.50;;;19.39;70.98
67987;BME280;54767;53.800;15.956;2023-07-31T15:29:21;99243.64;;;19.39;71.08
67987;BME280;54767;53.800;15.956;2023-07-31T15:31:50;99244.17;;;19.39;71.24
67987;BME280;54767;53.800;15.956;2023-07-31T15:34:19;99238.25;;;19.40;71.34
67987;BME280;54767;53.800;15.956;2023-07-31T15:36:48;99230.91;;;19.41;71.47
67987;BME280;54767;53.800;15.956;2023-07-31T15:39:16;99222.52;;;19.42;71.55
67987;BME280;54767;53.800;15.956;2023-07-31T15:41:45;99223.42;;;19.46;71.68
67987;BME280;54767;53.800;15.956;2023-07-31T15:44:16;99217.36;;;19.46;71.65
67987;BME280;54767;53.800;15.956;2023-07-31T16:16:43;99194.00;;;19.41;72.13
67987;BME280;54767;53.800;15.956;2023-07-31T16:19:42;99188.58;;;19.40;72.03
67987;BME280;54767;53.800;15.956;2023-07-31T16:26:12;99174.83;;;19.42;72.11
67987;BME280;54767;53.800;15.956;2023-07-31T16:29:01;99164.27;;;19.43;72.23
67987;BME280;54767;53.800;15.956;2023-07-31T16:32:02;99152.59;;;19.39;72.39
67987;BME280;54767;53.800;15.956;2023-07-31T16:34:52;99160.98;;;19.46;72.53
67987;BME280;54767;53.800;15.956;2023-07-31T16:38:10;99169.42;;;19.47;72.52
67987;BME280;54767;53.800;15.956;2023-07-31T16:41:35;99162.95;;;19.45;72.57
67987;BME280;54767;53.800;15.956;2023-07-31T16:44:22;99162.10;;;19.41;72.46
67987;BME280;54767;53.800;15.956;2023-07-31T16:54:51;99157.36;;;19.50;72.65
67987;BME280;54767;53.800;15.956;2023-07-31T17:08:11;99153.09;;;19.44;72.42
67987;BME280;54767;53.800;15.956;2023-07-31T17:10:42;99154.77;;;19.42;72.42
67987;BME280;54767;53.800;15.956;2023-07-31T17:18:55;99148.22;;;19.41;72.42
67987;BME280;54767;53.800;15.956;2023-07-31T17:22:24;99147.22;;;19.40;72.43
67987;BME280;54767;53.800;15.956;2023-07-31T17:25:23;99146.52;;;19.40;72.48
67987;BME280;54767;53.800;15.956;2023-07-31T17:28:16;99144.73;;;19.40;72.39
67987;BME280;54767;53.800;15.956;2023-07-31T17:30:47;99145.24;;;19.40;72.36
67987;BME280;54767;53.800;15.956;2023-07-31T17:33:35;99140.46;;;19.40;72.22
67987;BME280;54767;53.800;15.956;2023-07-31T17:36:20;99145.63;;;19.40;72.26
67987;BME280;54767;53.800;15.956;2023-07-31T17:38:49;99148.71;;;19.39;72.23
67987;BME280;54767;53.800;15.956;2023-07-31T17:41:21;99146.33;;;19.37;72.32
67987;BME280;54767;53.800;15.956;2023-07-31T17:43:52;99142.77;;;19.37;72.31
67987;BME280;54767;53.800;15.956;2023-07-31T17:46:21;99144.91;;;19.37;72.27
67987;BME280;54767;53.800;15.956;2023-07-31T17:48:50;99147.34;;;19.34;72.31
67987;BME280;54767;53.800;15.956;2023-07-31T17:51:20;99152.01;;;19.34;72.24
67987;BME280;54767;53.800;15.956;2023-07-31T17:53:49;99152.95;;;19.32;72.24
67987;BME280;54767;53.800;15.956;2023-07-31T17:56:23;99151.33;;;19.30;72.29
67987;BME280;54767;53.800;15.956;2023-07-31T17:58:55;99155.04;;;19.27;72.43
67987;BME280;54767;53.800;15.956;2023-07-31T18:01:23;99148.94;;;19.24;72.49
67987;BME280;54767;53.800;15.956;2023-07-31T18:03:52;99153.54;;;19.24;72.58
67987;BME280;54767;53.800;15.956;2023-07-31T18:06:20;99157.37;;;19.23;72.73
67987;BME280;54767;53.800;15.956;2023-07-31T18:08:50;99158.93;;;19.20;72.71
67987;BME280;54767;53.800;15.956;2023-07-31T18:11:19;99165.48;;;19.16;72.86
67987;BME280;54767;53.800;15.956;2023-07-31T18:13:50;99163.42;;;19.11;72.97
67987;BME280;54767;53.800;15.956;2023-07-31T18:16:19;99160.33;;;19.09;73.19
67987;BME280;54767;53.800;15.956;2023-07-31T18:18:49;99157.17;;;19.08;73.35
67987;BME280;54767;53.800;15.956;2023-07-31T18:21:18;99155.66;;;19.07;73.36
67987;BME280;54767;53.800;15.956;2023-07-31T18:23:47;99152.98;;;19.07;73.45
67987;BME280;54767;53.800;15.956;2023-07-31T18:26:17;99154.13;;;19.06;73.53
67987;BME280;54767;53.800;15.956;2023-07-31T18:28:46;99150.69;;;19.07;73.62
67987;BME280;54767;53.800;15.956;2023-07-31T18:31:28;99142.74;;;19.07;73.70
67987;BME280;54767;53.800;15.956;2023-07-31T18:34:08;99135.30;;;19.03;73.71
67987;BME280;54767;53.800;15.956;2023-07-31T18:36:37;99129.22;;;19.01;73.83
67987;BME280;54767;53.800;15.956;2023-07-31T18:39:12;99124.71;;;18.98;73.82
67987;BME280;54767;53.800;15.956;2023-07-31T18:41:41;99116.23;;;18.98;73.85
67987;BME280;54767;53.800;15.956;2023-07-31T18:44:15;99116.06;;;18.97;73.99
67987;BME280;54767;53.800;15.956;2023-07-31T18:46:43;99115.83;;;18.99;74.04
67987;BME280;54767;53.800;15.956;2023-07-31T18:49:15;99118.10;;;18.99;74.02
67987;BME280;54767;53.800;15.956;2023-07-31T18:51:43;99116.57;;;18.98;74.11
67987;BME280;54767;53.800;15.956;2023-07-31T18:54:15;99109.61;;;18.95;74.11
67987;BME280;54767;53.800;15.956;2023-07-31T18:56:44;99108.11;;;18.93;74.20
67987;BME280;54767;53.800;15.956;2023-07-31T18:59:13;99106.30;;;18.91;74.15
67987;BME280;54767;53.800;15.956;2023-07-31T19:01:41;99098.79;;;18.88;74.15
67987;BME280;54767;53.800;15.956;2023-07-31T19:04:12;99098.80;;;18.88;74.27
67987;BME280;54767;53.800;15.956;2023-07-31T19:06:40;99095.11;;;18.87;74.35
67987;BME280;54767;53.800;15.956;2023-07-31T19:09:10;99101.33;;;18.87;74.31
67987;BME280;54767;53.800;15.956;2023-07-31T19:11:46;99096.05;;;18.86;74.35
67987;BME280;54767;53.800;15.956;2023-07-31T19:14:17;99096.60;;;18.86;74.41
67987;BME280;54767;53.800;15.956;2023-07-31T19:16:46;99090.88;;;18.84;74.31
67987;BME280;54767;53.800;15.956;2023-07-31T19:19:14;99088.30;;;18.82;74.50
67987;BME280;54767;53.800;15.956;2023-07-31T19:21:43;99088.14;;;18.82;74.39
67987;BME280;54767;53.800;15.956;2023-07-31T19:24:12;99084.39;;;18.82;74.46
67987;BME280;54767;53.800;15.956;2023-07-31T19:26:52;99083.74;;;18.81;74.39
67987;BME280;54767;53.800;15.956;2023-07-31T19:29:36;99082.77;;;18.79;74.46
67987;BME280;54767;53.800;15.956;2023-07-31T19:32:07;99076.15;;;18.77;74.36
67987;BME280;54767;53.800;15.956;2023-07-31T19:34:36;99081.70;;;18.79;74.51
67987;BME280;54767;53.800;15.956;2023-07-31T19:37:04;99075.47;;;18.79;74.44